Time;durP1;ratioP1;P1;durP2;ratioP2;P2;SDS_P1;SDS_P2;PMS_P1;PMS_P2;Temp;Humidity;BMP_temperature;BMP_pressure;BME280_temperature;BME280_humidity;BME280_pressure;Samples;Min_cycle;Max_cycle;Signal;HPM_P1;HPM_P2
2023/07/16 04:07:21;;;;;;;0.90;0.80;;;18.10;99.90;;;;;;4958896;28;20891;-62
2023/07/16 04:09:47;;;;;;;1.07;1.07;;;18.10;99.90;;;;;;4975978;28;20481;-60
2023/07/16 04:12:12;;;;;;;1.33;1.10;;;18.10;99.90;;;;;;4976175;28;20175;-62
2023/07/16 04:14:38;;;;;;;0.83;0.83;;;18.00;99.90;;;;;;4975629;28;20251;-59
2023/07/16 04:17:03;;;;;;;0.93;0.90;;;18.00;99.90;;;;;;4976324;28;20183;-62
2023/07/16 04:19:29;;;;;;;2.40;1.37;;;18.00;99.90;;;;;;4975972;28;20243;-62
2023/07/16 04:21:55;;;;;;;1.43;0.83;;;18.00;99.90;;;;;;4958658;28;20416;-61
2023/07/16 04:24:21;;;;;;;1.37;1.27;;;18.00;99.90;;;;;;4965311;28;20518;-62
2023/07/16 04:26:46;;;;;;;1.53;1.30;;;18.10;99.90;;;;;;4956272;29;20230;-61
2023/07/16 04:29:12;;;;;;;1.10;1.00;;;18.10;99.90;;;;;;4956425;29;20199;-62
2023/07/16 04:31:37;;;;;;;1.33;0.93;;;18.10;99.90;;;;;;4956442;29;20243;-63
2023/07/16 04:34:03;;;;;;;0.90;0.90;;;18.10;99.90;;;;;;4955832;28;20285;-62
2023/07/16 04:36:28;;;;;;;1.00;1.00;;;18.10;99.90;;;;;;4955511;29;20189;-61
2023/07/16 04:38:54;;;;;;;1.43;1.33;;;18.10;99.90;;;;;;4956182;29;20537;-61
2023/07/16 04:41:20;;;;;;;3.20;1.50;;;18.20;99.90;;;;;;4955789;28;20181;-60
2023/07/16 04:43:45;;;;;;;0.83;0.83;;;18.20;99.90;;;;;;4955789;29;20184;-62
2023/07/16 04:46:11;;;;;;;1.30;0.90;;;18.30;99.90;;;;;;4956136;29;20203;-61
2023/07/16 04:48:37;;;;;;;1.10;1.00;;;18.30;99.90;;;;;;4956034;29;20308;-61
2023/07/16 04:51:03;;;;;;;1.80;1.47;;;18.30;99.90;;;;;;4956123;29;20476;-61
2023/07/16 04:53:28;;;;;;;1.80;0.80;;;18.30;99.90;;;;;;4955829;29;20177;-64
2023/07/16 04:55:54;;;;;;;0.90;0.90;;;18.30;99.90;;;;;;4955978;29;20197;-62
2023/07/16 04:58:19;;;;;;;2.30;1.47;;;18.30;99.90;;;;;;4956075;29;20216;-63
2023/07/16 05:00:45;;;;;;;1.30;1.20;;;18.40;99.90;;;;;;4964553;28;20199;-61
2023/07/16 05:03:11;;;;;;;1.83;1.53;;;18.40;99.90;;;;;;4975286;28;20515;-62
2023/07/16 05:05:36;;;;;;;1.30;1.20;;;18.40;99.90;;;;;;4974507;28;20222;-62
2023/07/16 05:08:02;;;;;;;1.10;1.07;;;18.50;99.90;;;;;;4974911;28;20235;-62
2023/07/16 05:10:28;;;;;;;1.07;0.97;;;18.60;99.90;;;;;;4975211;28;20184;-63
2023/07/16 05:12:54;;;;;;;0.77;0.77;;;18.60;99.90;;;;;;4975044;28;20180;-61
2023/07/16 05:15:19;;;;;;;1.27;0.90;;;18.70;99.90;;;;;;4974402;28;20413;-61
2023/07/16 05:17:45;;;;;;;1.00;1.00;;;18.70;99.90;;;;;;4974854;28;20176;-60
2023/07/16 05:20:11;;;;;;;1.20;1.20;;;18.70;99.90;;;;;;4974879;28;20270;-62
2023/07/16 05:22:36;;;;;;;0.93;0.87;;;18.70;99.90;;;;;;4974964;28;20191;-60
2023/07/16 05:25:02;;;;;;;1.53;1.27;;;18.70;99.90;;;;;;4974379;28;20206;-63
2023/07/16 05:27:29;;;;;;;0.87;0.83;;;18.80;99.90;;;;;;4974934;28;20180;-61
2023/07/16 05:29:54;;;;;;;1.07;0.97;;;18.80;99.90;;;;;;4974750;28;20430;-63
2023/07/16 05:32:21;;;;;;;1.13;1.10;;;18.80;99.90;;;;;;4974837;28;20394;-60
2023/07/16 05:34:47;;;;;;;2.30;1.20;;;18.80;99.90;;;;;;4974332;28;20203;-61
2023/07/16 05:37:12;;;;;;;1.13;1.10;;;18.90;99.90;;;;;;4974632;28;20895;-62
2023/07/16 05:39:38;;;;;;;1.03;1.03;;;18.90;99.90;;;;;;4974607;28;20179;-60
2023/07/16 05:42:04;;;;;;;0.67;0.67;;;18.90;99.90;;;;;;4960996;28;20228;-60
2023/07/16 05:44:30;;;;;;;0.97;0.80;;;18.90;99.90;;;;;;4967092;28;20283;-61
2023/07/16 05:46:56;;;;;;;1.73;1.00;;;18.90;99.90;;;;;;4974718;28;20827;-62
2023/07/16 05:49:21;;;;;;;0.90;0.90;;;18.90;99.90;;;;;;4955563;28;20228;-61
2023/07/16 05:51:47;;;;;;;1.17;1.07;;;18.90;99.90;;;;;;4955117;28;20215;-62
2023/07/16 05:54:13;;;;;;;1.20;1.10;;;19.00;99.90;;;;;;4958428;29;20259;-61
2023/07/16 05:56:38;;;;;;;0.80;0.80;;;19.10;99.90;;;;;;4959029;28;20773;-62
2023/07/16 05:59:04;;;;;;;1.03;0.97;;;19.30;99.90;;;;;;4959002;28;20239;-61
2023/07/16 06:01:29;;;;;;;1.20;1.10;;;19.40;99.90;;;;;;4977455;28;20634;-61
2023/07/16 06:03:55;;;;;;;1.13;0.80;;;19.50;99.90;;;;;;4978124;28;20519;-62
2023/07/16 06:06:21;;;;;;;0.77;0.77;;;19.60;99.90;;;;;;4978149;28;20218;-62
2023/07/16 06:08:46;;;;;;;0.80;0.80;;;19.60;99.90;;;;;;4978047;28;20562;-62
2023/07/16 06:11:13;;;;;;;0.80;0.80;;;19.60;99.90;;;;;;4978252;28;20212;-62
2023/07/16 06:13:38;;;;;;;1.17;1.07;;;19.80;99.90;;;;;;4977819;28;20180;-61
2023/07/16 06:16:04;;;;;;;0.63;0.63;;;20.00;99.90;;;;;;4977986;28;20925;-62
2023/07/16 06:18:30;;;;;;;0.60;0.60;;;20.20;99.90;;;;;;4978116;28;20566;-60
2023/07/16 06:20:55;;;;;;;1.00;0.80;;;20.40;99.90;;;;;;4978214;28;20239;-61
2023/07/16 06:23:21;;;;;;;2.73;0.90;;;20.40;99.90;;;;;;4977595;28;20196;-63
2023/07/16 06:25:48;;;;;;;1.23;1.23;;;20.50;99.90;;;;;;4977850;28;20251;-61
2023/07/16 06:28:14;;;;;;;1.00;1.00;;;20.50;99.90;;;;;;4977553;28;20351;-61
2023/07/16 06:30:40;;;;;;;0.87;0.70;;;20.40;99.90;;;;;;4962600;28;20395;-63
2023/07/16 06:33:05;;;;;;;0.70;0.70;;;20.40;99.90;;;;;;4958294;29;20408;-58
2023/07/16 06:35:31;;;;;;;0.80;0.80;;;20.30;99.90;;;;;;4958270;29;20197;-62
2023/07/16 06:37:57;;;;;;;0.90;0.90;;;20.20;99.90;;;;;;4958785;28;20234;-61
2023/07/16 06:40:24;;;;;;;1.07;0.87;;;20.20;99.90;;;;;;4977534;28;20634;-62
2023/07/16 06:42:49;;;;;;;1.13;1.00;;;20.20;99.90;;;;;;4977485;28;20180;-62
2023/07/16 06:45:15;;;;;;;0.60;0.60;;;20.30;99.90;;;;;;4977157;28;20427;-64
2023/07/16 06:47:40;;;;;;;1.17;0.70;;;20.30;99.90;;;;;;4971895;28;20517;-62
2023/07/16 06:50:06;;;;;;;1.83;0.90;;;20.40;99.90;;;;;;4958063;29;20314;-62
2023/07/16 06:52:32;;;;;;;0.90;0.90;;;20.50;99.90;;;;;;4958272;29;20176;-63
2023/07/16 06:54:57;;;;;;;1.53;0.77;;;20.60;99.90;;;;;;4957631;29;20444;-61
2023/07/16 06:57:23;;;;;;;1.70;1.40;;;20.80;99.90;;;;;;4958024;28;20173;-60
2023/07/16 06:59:49;;;;;;;1.90;1.70;;;20.90;99.90;;;;;;4957145;28;20200;-62
2023/07/16 07:02:17;;;;;;;0.60;0.60;;;21.00;99.90;;;;;;4977296;28;20485;-61
2023/07/16 07:04:42;;;;;;;1.23;1.13;;;21.20;99.90;;;;;;4976242;28;20221;-61
2023/07/16 07:07:08;;;;;;;0.90;0.83;;;21.30;99.90;;;;;;4957651;28;20527;-60
2023/07/16 07:09:34;;;;;;;1.13;0.80;;;21.50;99.90;;;;;;4938907;29;20205;-60
2023/07/16 07:12:00;;;;;;;1.00;1.00;;;21.70;99.90;;;;;;4938421;29;20209;-60
2023/07/16 07:14:25;;;;;;;0.87;0.87;;;21.90;99.90;;;;;;4937998;29;20197;-61
2023/07/16 07:16:51;;;;;;;1.10;0.93;;;22.20;99.90;;;;;;4938552;29;20232;-61
2023/07/16 07:19:16;;;;;;;1.00;0.90;;;22.40;99.90;;;;;;4921407;29;20186;-60
2023/07/16 07:21:42;;;;;;;2.37;1.17;;;22.60;99.90;;;;;;4938283;29;20347;-63
2023/07/16 07:24:07;;;;;;;1.30;1.20;;;22.80;99.90;;;;;;4937795;29;20268;-61
2023/07/16 07:26:33;;;;;;;2.20;2.00;;;23.10;99.90;;;;;;4938513;29;20678;-62
2023/07/16 07:28:59;;;;;;;0.70;0.70;;;23.20;99.90;;;;;;4937995;29;20217;-60
2023/07/16 07:31:24;;;;;;;0.70;0.70;;;23.40;99.90;;;;;;4938235;29;20205;-61
2023/07/16 07:33:50;;;;;;;0.57;0.57;;;23.70;99.90;;;;;;4937909;29;20241;-62
2023/07/16 07:36:15;;;;;;;1.10;1.00;;;24.00;99.90;;;;;;4938211;29;20232;-59
2023/07/16 07:38:41;;;;;;;1.17;1.10;;;24.60;99.90;;;;;;4938260;29;20629;-61
2023/07/16 07:41:07;;;;;;;0.80;0.80;;;25.10;99.90;;;;;;4920568;29;20425;-61
2023/07/16 07:43:32;;;;;;;0.90;0.90;;;25.50;99.90;;;;;;4937683;29;20191;-62
2023/07/16 07:45:58;;;;;;;1.50;1.13;;;26.30;99.90;;;;;;4938534;29;20221;-61
2023/07/16 07:48:23;;;;;;;1.10;1.10;;;27.00;99.90;;;;;;4937779;29;20205;-61
2023/07/16 07:50:50;;;;;;;0.70;0.70;;;27.20;99.90;;;;;;4939784;29;20200;-61
2023/07/16 07:53:17;;;;;;;0.97;0.97;;;27.50;99.90;;;;;;4948728;28;20264;-61
2023/07/16 07:55:43;;;;;;;0.70;0.67;;;27.70;97.90;;;;;;4937591;29;20449;-61
2023/07/16 07:58:09;;;;;;;1.17;1.00;;;27.70;96.20;;;;;;4950912;28;20429;-61
2023/07/16 08:00:35;;;;;;;0.80;0.80;;;27.50;95.40;;;;;;4956701;28;20471;-61
2023/07/16 08:03:01;;;;;;;1.33;0.83;;;27.10;95.80;;;;;;4955117;29;20177;-61
2023/07/16 08:12:10;;;;;;;1.20;1.00;;;26.70;95.70;;;;;;4953674;29;20839;-61
2023/07/16 08:14:36;;;;;;;0.80;0.80;;;26.50;97.30;;;;;;4955464;28;20427;-61
2023/07/16 08:17:02;;;;;;;2.20;1.50;;;26.30;98.10;;;;;;4948403;29;20526;-61
2023/07/16 08:19:27;;;;;;;1.27;0.90;;;26.80;98.20;;;;;;4937317;29;20541;-60
2023/07/16 08:21:53;;;;;;;1.00;0.90;;;27.00;96.30;;;;;;4935443;29;20641;-61
2023/07/16 08:24:18;;;;;;;0.80;0.80;;;26.90;95.80;;;;;;4936000;29;20183;-61
2023/07/16 08:26:45;;;;;;;1.00;1.00;;;27.00;96.50;;;;;;4939500;29;20702;-60
2023/07/16 08:29:10;;;;;;;1.10;0.93;;;27.80;97.10;;;;;;4955777;28;20212;-61
2023/07/16 08:31:36;;;;;;;1.23;1.07;;;28.20;96.50;;;;;;4956330;29;20399;-60
2023/07/16 08:34:02;;;;;;;2.00;1.27;;;28.60;94.10;;;;;;4955777;29;20177;-62
2023/07/16 08:36:27;;;;;;;1.70;1.50;;;28.70;92.70;;;;;;4954985;28;20197;-61
2023/07/16 08:38:53;;;;;;;1.07;1.03;;;29.00;91.80;;;;;;4937223;29;20185;-60
2023/07/16 08:41:19;;;;;;;2.33;1.00;;;29.00;91.40;;;;;;4937190;29;20182;-60
2023/07/16 08:43:47;;;;;;;0.87;0.80;;;29.00;93.20;;;;;;4936643;29;20663;-61
2023/07/16 08:46:17;;;;;;;0.80;0.80;;;28.90;93.10;;;;;;4937029;29;20202;-61
2023/07/16 08:48:45;;;;;;;0.90;0.90;;;28.70;92.80;;;;;;4955307;28;20431;-60
2023/07/16 08:51:13;;;;;;;0.97;0.97;;;28.90;94.20;;;;;;4956350;29;20428;-61
2023/07/16 08:53:39;;;;;;;1.37;1.27;;;29.50;93.20;;;;;;4955621;28;20516;-62
2023/07/16 08:56:05;;;;;;;1.30;1.20;;;30.30;92.50;;;;;;4955727;28;20519;-62
2023/07/16 08:58:31;;;;;;;3.47;2.03;;;30.60;92.00;;;;;;4938976;29;20193;-61
2023/07/16 09:00:59;;;;;;;1.10;1.00;;;30.60;91.40;;;;;;4936803;29;20410;-60
2023/07/16 09:03:24;;;;;;;1.10;1.00;;;30.70;90.70;;;;;;4919209;29;20418;-63
2023/07/16 09:05:50;;;;;;;1.20;0.90;;;30.50;90.10;;;;;;4936652;29;20517;-62
2023/07/16 09:08:16;;;;;;;1.53;0.83;;;30.10;85.60;;;;;;4950666;29;20268;-61
2023/07/16 09:10:43;;;;;;;0.70;0.67;;;29.50;88.50;;;;;;4955752;28;20223;-61
2023/07/16 09:13:09;;;;;;;0.90;0.90;;;29.50;91.00;;;;;;4944271;29;20441;-61
2023/07/16 09:15:34;;;;;;;0.80;0.80;;;30.10;90.50;;;;;;4935974;29;20448;-61
2023/07/16 09:18:00;;;;;;;1.20;1.10;;;30.80;85.30;;;;;;4919298;29;20426;-62
2023/07/16 09:20:30;;;;;;;0.80;0.80;;;31.50;87.00;;;;;;4936466;29;20276;-61
2023/07/16 09:22:57;;;;;;;1.00;1.00;;;32.30;82.80;;;;;;4944654;29;20259;-62
2023/07/16 09:25:29;;;;;;;1.00;1.00;;;33.10;79.30;;;;;;4954881;28;20424;-61
2023/07/16 09:27:55;;;;;;;1.03;0.97;;;33.60;76.10;;;;;;4955192;28;20401;-61
2023/07/16 09:30:20;;;;;;;0.93;0.93;;;34.30;75.90;;;;;;4955437;28;20475;-61
2023/07/16 09:32:47;;;;;;;1.30;1.20;;;35.00;71.80;;;;;;4948332;28;20188;-61
2023/07/16 09:35:17;;;;;;;1.00;1.00;;;35.30;73.60;;;;;;4935794;29;20224;-61
2023/07/16 09:37:43;;;;;;;1.20;1.20;;;35.60;69.40;;;;;;4936229;29;20985;-60
2023/07/16 09:40:12;;;;;;;1.30;1.30;;;35.60;67.30;;;;;;4943264;29;20432;-61
2023/07/16 09:42:42;;;;;;;1.20;1.20;;;35.90;69.70;;;;;;4943636;28;20429;-60
2023/07/16 09:45:13;;;;;;;2.70;1.30;;;36.50;67.60;;;;;;4935702;29;20480;-64
2023/07/16 09:47:39;;;;;;;1.40;1.30;;;37.10;64.50;;;;;;4936235;29;20420;-61
2023/07/16 09:50:05;;;;;;;1.20;1.20;;;37.40;64.40;;;;;;4936436;29;20512;-61
2023/07/16 09:52:32;;;;;;;1.50;1.40;;;37.80;59.30;;;;;;4942904;28;20427;-60
2023/07/16 09:55:01;;;;;;;1.30;1.30;;;38.10;59.10;;;;;;4954701;29;20467;-62
2023/07/16 09:57:30;;;;;;;1.73;1.73;;;38.40;62.10;;;;;;4939343;29;20414;-61
2023/07/16 09:59:58;;;;;;;1.17;1.10;;;38.70;57.40;;;;;;4937761;29;20421;-61
2023/07/16 10:02:24;;;;;;;2.37;1.80;;;38.40;56.80;;;;;;4952317;28;20435;-61
2023/07/16 10:04:49;;;;;;;1.23;1.20;;;38.20;56.30;;;;;;4935180;29;20444;-60
2023/07/16 10:07:23;;;;;;;1.30;1.20;;;37.60;55.90;;;;;;4942515;29;20180;-61
2023/07/16 10:09:55;;;;;;;1.87;1.73;;;36.70;56.30;;;;;;4955185;28;20248;-62
2023/07/16 10:12:22;;;;;;;1.67;1.37;;;36.40;59.10;;;;;;4952399;28;20935;-61
2023/07/16 10:14:50;;;;;;;1.40;1.13;;;36.30;57.50;;;;;;4935485;29;20488;-61
2023/07/16 10:17:22;;;;;;;1.70;1.60;;;36.10;57.40;;;;;;4943496;29;20428;-60
2023/07/16 10:19:51;;;;;;;3.97;1.20;;;36.40;58.00;;;;;;4935783;29;20421;-61
2023/07/16 10:22:19;;;;;;;1.10;1.10;;;36.80;57.30;;;;;;4938902;29;20516;-62
2023/07/16 10:24:51;;;;;;;1.20;1.20;;;36.40;54.70;;;;;;4935423;29;20452;-62
2023/07/16 10:27:27;;;;;;;1.20;1.20;;;36.00;56.40;;;;;;4935830;29;20916;-62
2023/07/16 10:29:54;;;;;;;1.60;1.50;;;36.10;56.90;;;;;;4935914;29;20459;-62
2023/07/16 10:32:20;;;;;;;1.17;1.10;;;36.10;56.70;;;;;;4950253;28;20931;-61
2023/07/16 10:34:46;;;;;;;1.03;1.03;;;36.20;58.50;;;;;;4973694;28;20523;-62
2023/07/16 10:37:11;;;;;;;1.10;1.10;;;36.50;59.90;;;;;;4953296;28;20242;-61
2023/07/16 10:39:46;;;;;;;2.00;1.50;;;36.50;59.00;;;;;;4941797;29;20244;-60
2023/07/16 10:42:12;;;;;;;1.00;1.00;;;36.70;57.40;;;;;;4939084;29;20197;-60
2023/07/16 10:44:40;;;;;;;1.10;1.10;;;36.80;56.80;;;;;;4938538;29;20477;-60
2023/07/16 10:47:05;;;;;;;1.40;1.40;;;36.40;56.50;;;;;;4939158;29;20256;-61
2023/07/16 10:49:31;;;;;;;1.30;1.20;;;36.20;59.50;;;;;;4939184;29;20500;-61
2023/07/16 10:51:59;;;;;;;1.83;1.70;;;35.90;59.30;;;;;;4949809;29;20297;-60
2023/07/16 10:54:25;;;;;;;1.33;1.23;;;35.80;61.60;;;;;;4957738;29;20212;-59
2023/07/16 10:56:51;;;;;;;1.27;1.27;;;35.60;58.60;;;;;;4958112;28;20417;-60
2023/07/16 10:59:17;;;;;;;1.43;1.33;;;35.60;60.10;;;;;;4957967;29;20655;-60
2023/07/16 11:01:43;;;;;;;1.80;1.70;;;35.20;59.90;;;;;;4946083;28;20444;-60
2023/07/16 11:04:09;;;;;;;1.17;1.10;;;34.60;61.00;;;;;;4938610;29;20181;-60
2023/07/16 11:06:35;;;;;;;1.00;1.00;;;33.40;61.60;;;;;;4945210;29;20930;-60
2023/07/16 11:09:11;;;;;;;1.63;1.53;;;32.30;62.40;;;;;;4958124;29;20185;-60
2023/07/16 11:11:37;;;;;;;1.47;1.37;;;31.40;66.30;;;;;;4949507;29;20987;-61
2023/07/16 11:14:06;;;;;;;1.70;1.60;;;31.00;64.40;;;;;;4938463;29;20783;-60
2023/07/16 11:16:36;;;;;;;1.20;1.20;;;30.20;67.20;;;;;;4938795;29;20816;-61
2023/07/16 11:19:06;;;;;;;1.30;1.20;;;29.60;71.60;;;;;;4938524;29;20520;-60
2023/07/16 11:21:33;;;;;;;2.40;2.20;;;29.10;71.90;;;;;;4945303;29;20854;-61
2023/07/16 11:24:15;;;;;;;2.93;2.73;;;28.80;73.90;;;;;;4956986;29;20799;-61
2023/07/16 11:26:52;;;;;;;1.40;1.30;;;28.30;74.00;;;;;;4957602;29;20409;-60
2023/07/16 11:29:18;;;;;;;1.60;1.50;;;27.90;74.20;;;;;;4957802;29;20411;-61
2023/07/16 11:31:43;;;;;;;1.30;1.20;;;27.70;79.20;;;;;;4949270;28;20411;-60
2023/07/16 11:34:13;;;;;;;1.93;1.20;;;27.40;77.80;;;;;;4937927;29;20186;-60
2023/07/16 11:36:39;;;;;;;1.30;1.13;;;27.30;78.70;;;;;;4938144;29;20332;-61
2023/07/16 11:39:04;;;;;;;0.70;0.70;;;27.10;80.70;;;;;;4938398;29;20871;-61
2023/07/16 11:41:30;;;;;;;0.97;0.97;;;27.10;78.80;;;;;;4943220;29;20181;-60
2023/07/16 11:44:01;;;;;;;1.40;1.30;;;27.10;80.50;;;;;;4957307;29;20180;-61
2023/07/16 11:46:32;;;;;;;1.27;0.87;;;27.10;80.50;;;;;;4957347;29;20422;-60
2023/07/16 11:48:58;;;;;;;0.80;0.80;;;27.10;80.80;;;;;;4957292;29;20407;-60
2023/07/16 11:51:24;;;;;;;0.80;0.80;;;27.10;81.30;;;;;;4952601;28;20407;-59
2023/07/16 11:53:49;;;;;;;1.13;1.00;;;27.20;82.70;;;;;;4938341;29;20428;-61
2023/07/16 11:56:15;;;;;;;1.20;1.20;;;27.30;81.00;;;;;;4937968;29;20198;-61
2023/07/16 11:58:41;;;;;;;1.40;1.30;;;27.30;82.00;;;;;;4937951;29;20237;-61
2023/07/16 12:01:07;;;;;;;2.33;1.20;;;27.30;84.30;;;;;;4939374;29;20252;-61
2023/07/16 12:03:32;;;;;;;1.37;1.20;;;27.20;83.40;;;;;;4956682;28;20391;-61
2023/07/16 12:05:58;;;;;;;1.10;1.07;;;27.10;84.40;;;;;;4956808;29;20205;-61
2023/07/16 12:08:23;;;;;;;2.23;1.40;;;27.30;83.40;;;;;;4956934;28;20520;-61
2023/07/16 12:10:49;;;;;;;1.30;1.20;;;27.40;85.40;;;;;;4957016;28;20231;-61
2023/07/16 12:13:14;;;;;;;1.57;1.10;;;27.30;81.20;;;;;;4954181;29;20587;-62
2023/07/16 12:15:40;;;;;;;1.00;0.97;;;27.30;83.50;;;;;;4956792;28;20206;-60
2023/07/16 12:18:06;;;;;;;0.90;0.90;;;27.20;81.70;;;;;;4956736;28;20187;-62
2023/07/16 12:20:31;;;;;;;3.40;1.30;;;27.20;83.60;;;;;;4956585;28;20238;-61
2023/07/16 12:22:57;;;;;;;1.97;1.20;;;27.10;81.70;;;;;;4941802;29;20189;-61
2023/07/16 12:25:22;;;;;;;1.13;1.10;;;26.90;81.90;;;;;;4936762;29;20227;-61
2023/07/16 12:27:48;;;;;;;1.47;1.00;;;26.80;79.60;;;;;;4937225;29;20183;-61
2023/07/16 12:30:13;;;;;;;1.37;1.27;;;26.80;83.00;;;;;;4937316;29;20182;-60
2023/07/16 12:32:39;;;;;;;0.90;0.90;;;26.90;80.50;;;;;;4947524;29;20181;-61
2023/07/16 12:35:05;;;;;;;1.00;1.00;;;26.90;80.80;;;;;;4955895;28;20681;-61
2023/07/16 12:37:30;;;;;;;2.27;1.10;;;27.00;84.30;;;;;;4956530;28;20531;-60
2023/07/16 12:39:56;;;;;;;1.10;1.00;;;27.10;83.20;;;;;;4956176;29;20214;-61
2023/07/16 12:42:22;;;;;;;1.17;1.10;;;27.10;82.90;;;;;;4947707;28;20187;-61
2023/07/16 12:44:49;;;;;;;1.30;1.20;;;27.00;81.50;;;;;;4936567;29;20206;-62
2023/07/16 12:47:15;;;;;;;0.90;0.90;;;27.00;83.80;;;;;;4936928;29;20672;-61
2023/07/16 12:49:41;;;;;;;2.83;1.20;;;27.10;85.20;;;;;;4937318;29;20485;-62
2023/07/16 12:52:07;;;;;;;2.17;1.10;;;27.20;86.40;;;;;;4956012;29;20195;-61
2023/07/16 12:54:33;;;;;;;1.30;1.20;;;27.50;86.20;;;;;;4955650;29;20200;-61
2023/07/16 12:56:58;;;;;;;1.50;1.40;;;27.60;81.20;;;;;;4956165;29;20399;-60
2023/07/16 12:59:27;;;;;;;1.33;1.33;;;27.70;82.70;;;;;;4956049;29;20674;-61
2023/07/16 13:01:52;;;;;;;0.90;0.90;;;27.50;78.00;;;;;;4938242;29;20220;-60
2023/07/16 13:04:18;;;;;;;1.40;1.30;;;27.40;78.20;;;;;;4936369;29;20455;-61
2023/07/16 13:06:47;;;;;;;1.70;1.07;;;27.50;82.20;;;;;;4936707;29;20173;-61
2023/07/16 13:09:13;;;;;;;1.33;1.20;;;27.70;76.80;;;;;;4936701;29;20192;-60
2023/07/16 13:11:39;;;;;;;1.10;1.00;;;27.90;78.60;;;;;;4934072;29;20762;-60
2023/07/16 13:14:05;;;;;;;1.13;1.03;;;28.00;80.60;;;;;;4954900;29;20421;-59
2023/07/16 13:16:30;;;;;;;1.63;0.90;;;28.10;77.60;;;;;;4955795;29;20189;-60
2023/07/16 13:18:56;;;;;;;1.13;0.97;;;28.20;77.00;;;;;;4937853;29;20247;-60
2023/07/16 13:21:21;;;;;;;1.33;1.23;;;28.20;78.30;;;;;;4936423;29;20260;-61
2023/07/16 13:23:47;;;;;;;1.20;1.10;;;28.20;78.60;;;;;;4936050;29;20185;-61
2023/07/16 13:26:13;;;;;;;1.40;1.30;;;28.30;75.90;;;;;;4936434;29;20212;-61
2023/07/16 13:28:38;;;;;;;1.63;1.53;;;28.30;74.80;;;;;;4950066;29;20340;-61
2023/07/16 13:31:04;;;;;;;0.97;0.93;;;27.90;74.20;;;;;;4955699;28;20194;-60
2023/07/16 13:33:29;;;;;;;1.40;1.27;;;27.70;71.80;;;;;;4955475;28;20214;-60
2023/07/16 13:35:57;;;;;;;1.00;1.00;;;27.50;77.40;;;;;;4955381;29;20211;-60
2023/07/16 13:38:22;;;;;;;1.37;0.90;;;27.40;80.50;;;;;;4944364;29;20214;-60
2023/07/16 13:40:48;;;;;;;1.50;1.40;;;27.50;77.70;;;;;;4936284;29;20403;-60
2023/07/16 13:43:13;;;;;;;1.30;1.30;;;27.60;81.30;;;;;;4936096;29;20178;-60
2023/07/16 13:45:39;;;;;;;1.10;1.10;;;27.60;81.80;;;;;;4936086;29;20202;-60
2023/07/16 13:48:05;;;;;;;1.20;1.20;;;27.60;79.70;;;;;;4944242;28;20178;-60
2023/07/16 13:50:30;;;;;;;1.27;1.17;;;27.60;82.00;;;;;;4955232;29;20176;-61
2023/07/16 13:52:56;;;;;;;2.23;0.80;;;27.60;79.00;;;;;;4955490;29;20190;-61
2023/07/16 13:55:22;;;;;;;2.13;1.27;;;27.60;76.70;;;;;;4954897;29;20670;-61
2023/07/16 13:57:47;;;;;;;1.17;1.00;;;27.50;76.30;;;;;;4950142;29;20186;-61
2023/07/16 14:00:15;;;;;;;0.80;0.80;;;27.50;76.40;;;;;;4936158;29;20208;-60
2023/07/16 14:02:42;;;;;;;1.63;1.20;;;27.50;79.50;;;;;;4935883;29;20176;-60
2023/07/16 14:05:07;;;;;;;1.77;1.43;;;27.60;79.80;;;;;;4935557;29;20469;-60
2023/07/16 14:07:33;;;;;;;0.90;0.90;;;27.70;79.40;;;;;;4938896;29;20438;-59
2023/07/16 14:09:59;;;;;;;1.17;1.17;;;27.80;79.80;;;;;;4955155;28;20205;-61
2023/07/16 14:12:24;;;;;;;1.27;1.20;;;28.00;81.30;;;;;;4954931;28;20714;-60
2023/07/16 14:14:50;;;;;;;1.40;1.30;;;28.20;82.10;;;;;;4957494;29;20608;-61
2023/07/16 14:17:15;;;;;;;5.70;1.33;;;28.40;78.10;;;;;;4958134;29;20187;-60
2023/07/16 14:19:41;;;;;;;1.97;1.20;;;28.20;79.10;;;;;;4939632;29;20201;-61
2023/07/16 14:22:11;;;;;;;1.40;1.30;;;28.10;78.00;;;;;;4939790;29;20178;-61
2023/07/16 14:24:37;;;;;;;1.73;1.63;;;28.20;77.70;;;;;;4939267;29;20657;-61
2023/07/16 14:27:02;;;;;;;1.13;1.13;;;28.10;77.80;;;;;;4939693;29;20432;-61
2023/07/16 14:29:29;;;;;;;2.10;1.03;;;28.10;79.90;;;;;;4957227;28;20280;-61
2023/07/16 14:31:55;;;;;;;1.50;1.40;;;28.10;79.60;;;;;;4958764;28;20211;-59
2023/07/16 14:34:20;;;;;;;1.97;1.77;;;28.20;79.30;;;;;;4958261;29;20410;-63
2023/07/16 14:36:46;;;;;;;1.53;1.30;;;28.20;77.50;;;;;;4958497;28;20450;-60
2023/07/16 14:39:12;;;;;;;1.10;1.10;;;28.20;78.00;;;;;;4942815;29;20243;-61
2023/07/16 14:41:37;;;;;;;3.53;1.63;;;28.10;76.90;;;;;;4939456;29;20180;-61
2023/07/16 14:44:04;;;;;;;4.70;4.23;;;28.00;79.90;;;;;;4938946;29;20181;-60
2023/07/16 14:46:30;;;;;;;2.10;1.90;;;28.00;79.90;;;;;;4939181;29;20201;-62
2023/07/16 14:48:56;;;;;;;3.50;3.20;;;28.00;80.00;;;;;;4952087;28;20434;-61
2023/07/16 14:51:22;;;;;;;2.30;1.70;;;28.00;79.40;;;;;;4958344;28;20193;-61
2023/07/16 14:53:48;;;;;;;2.13;1.93;;;28.10;78.00;;;;;;4958102;29;20427;-61
2023/07/16 14:56:13;;;;;;;2.60;2.40;;;28.10;77.10;;;;;;4958282;29;20200;-61
2023/07/16 14:58:39;;;;;;;1.50;1.37;;;28.10;78.90;;;;;;4947032;29;20259;-61
2023/07/16 15:01:07;;;;;;;1.40;1.30;;;28.10;82.20;;;;;;4939714;29;20603;-61
2023/07/16 15:03:35;;;;;;;1.47;1.37;;;28.00;80.00;;;;;;4938603;29;20196;-60
2023/07/16 15:06:01;;;;;;;1.37;1.27;;;28.00;78.30;;;;;;4921684;29;20839;-61
2023/07/16 15:08:26;;;;;;;1.27;1.17;;;27.80;76.50;;;;;;4947303;29;20406;-61
2023/07/16 15:10:53;;;;;;;1.13;1.00;;;27.50;80.00;;;;;;4958047;29;20223;-61
2023/07/16 15:13:20;;;;;;;1.30;1.20;;;27.30;81.40;;;;;;4957481;28;20199;-62
2023/07/16 15:15:49;;;;;;;1.40;1.30;;;27.30;81.30;;;;;;4957929;29;20422;-61
2023/07/16 15:18:14;;;;;;;1.30;1.20;;;27.20;81.20;;;;;;4950808;28;20559;-60
2023/07/16 15:20:40;;;;;;;1.10;1.10;;;27.10;81.40;;;;;;4938717;29;20516;-60
2023/07/16 15:23:06;;;;;;;1.60;1.50;;;26.90;80.90;;;;;;4938643;29;20179;-61
2023/07/16 15:25:32;;;;;;;1.17;1.17;;;26.80;82.40;;;;;;4937597;29;20211;-61
2023/07/16 15:27:59;;;;;;;1.50;1.50;;;26.70;82.70;;;;;;4942625;28;20203;-61
2023/07/16 15:30:25;;;;;;;2.50;1.27;;;26.50;83.50;;;;;;4957111;29;20196;-61
2023/07/16 15:32:51;;;;;;;1.70;1.60;;;26.40;83.30;;;;;;4957578;29;20427;-61
2023/07/16 15:35:17;;;;;;;1.27;1.23;;;26.40;83.80;;;;;;4957171;29;20440;-60
2023/07/16 15:37:43;;;;;;;1.30;1.30;;;26.50;83.10;;;;;;4955243;29;20406;-59
2023/07/16 15:40:16;;;;;;;1.70;1.60;;;26.50;83.00;;;;;;4938317;29;20221;-60
2023/07/16 15:42:42;;;;;;;1.40;1.20;;;26.50;83.10;;;;;;4938207;29;20409;-60
2023/07/16 15:45:10;;;;;;;2.30;1.63;;;26.50;84.80;;;;;;4937906;29;20915;-61
2023/07/16 15:47:36;;;;;;;1.90;1.50;;;26.60;83.30;;;;;;4938933;29;20177;-60
2023/07/16 15:50:02;;;;;;;1.40;1.20;;;26.50;82.70;;;;;;4957412;28;20948;-60
2023/07/16 15:52:27;;;;;;;1.33;1.30;;;26.50;84.20;;;;;;4957422;29;20196;-61
2023/07/16 15:54:53;;;;;;;4.50;2.03;;;26.50;84.40;;;;;;4956679;29;20463;-61
2023/07/16 15:57:18;;;;;;;1.10;1.10;;;26.50;84.50;;;;;;4957254;29;20190;-60
2023/07/16 15:59:44;;;;;;;1.53;1.43;;;26.50;84.30;;;;;;4939166;29;20674;-61
2023/07/16 16:02:10;;;;;;;2.87;2.57;;;26.40;83.20;;;;;;4938422;29;20174;-60
2023/07/16 16:04:35;;;;;;;1.20;1.10;;;26.30;83.70;;;;;;4937319;29;20678;-61
2023/07/16 16:07:03;;;;;;;1.20;1.10;;;26.30;84.10;;;;;;4938006;29;20182;-60
2023/07/16 16:09:29;;;;;;;1.23;1.23;;;26.30;82.00;;;;;;4952780;28;20248;-60
2023/07/16 16:11:56;;;;;;;1.90;1.00;;;26.20;84.00;;;;;;4956771;29;20422;-61
2023/07/16 16:14:22;;;;;;;1.93;1.77;;;26.10;84.50;;;;;;4956557;28;20188;-60
2023/07/16 16:16:48;;;;;;;1.30;1.20;;;26.00;84.40;;;;;;4951265;29;20751;-61
2023/07/16 16:19:18;;;;;;;1.40;1.30;;;25.90;84.70;;;;;;4937329;29;20472;-60
2023/07/16 16:21:44;;;;;;;1.27;1.17;;;25.90;83.80;;;;;;4937727;29;20508;-60
2023/07/16 16:24:09;;;;;;;1.50;1.23;;;25.90;84.40;;;;;;4937039;29;20479;-60
2023/07/16 16:26:35;;;;;;;1.23;0.90;;;25.90;84.90;;;;;;4941202;29;20216;-61
2023/07/16 16:29:00;;;;;;;1.60;1.33;;;25.80;84.10;;;;;;4956685;29;20644;-60
2023/07/16 16:31:26;;;;;;;1.90;1.00;;;25.80;84.60;;;;;;4956518;29;20173;-61
2023/07/16 16:33:51;;;;;;;1.40;1.30;;;25.80;85.30;;;;;;4956225;29;20640;-60
2023/07/16 16:36:17;;;;;;;1.27;1.17;;;25.80;84.90;;;;;;4955377;28;20197;-61
2023/07/16 16:38:43;;;;;;;1.23;1.23;;;25.80;84.20;;;;;;4937490;29;20193;-62
2023/07/16 16:41:08;;;;;;;3.93;1.37;;;25.80;84.20;;;;;;4937104;29;20256;-60
2023/07/16 16:43:37;;;;;;;0.97;0.97;;;25.60;83.10;;;;;;4936592;29;20272;-60
2023/07/16 16:46:03;;;;;;;0.97;0.93;;;25.50;83.70;;;;;;4937095;29;20213;-59
2023/07/16 16:48:30;;;;;;;0.97;0.97;;;25.50;84.20;;;;;;4953658;29;20684;-60
2023/07/16 16:51:00;;;;;;;1.30;1.30;;;25.50;84.50;;;;;;4956076;29;20410;-62
2023/07/16 16:53:26;;;;;;;1.40;1.30;;;25.50;83.40;;;;;;4955872;29;20394;-61
2023/07/16 16:55:51;;;;;;;1.67;1.00;;;25.50;84.10;;;;;;4956131;29;20506;-60